• Join FlightAware (Why Join?)
  • Login
  • US Flag 
08:01PM EST


 

Airport Tracker/Info


-or-


 

Live Flight TrackerFlight Track Log ✈ N462B ✈ 16-May-2013 ✈ KMEM - KECP

Flight Track Log - Related Links

Times and Time Zones

All times are in EDT time to prevent confusion due to time zone crossing. See the N462B flight status page for this flight to view local times or setup timezone preferences in your user account.

Time Position Orientation Groundspeed Altitude Reporting Facility
EDT Latitude Longitude Course Direction KTS MPH feet Rate Location/Type
05:52PM 34.9833 -89.9667 172° South 215 247 3,100  Level KMEM
05:53PM 34.9167 -89.9667 180° South 262 302 6,100 3,000 Climbing KMEM
05:54PM 34.8500 -89.9833 192° South 272 313 8,800 2,460 Climbing KMEM
05:55PM 34.7711 -90.0233 203° Southwest 284 327 11,500 2,220 Climbing Memphis Center
05:56PM 34.6981 -89.9783 153° Southeast 264 304 13,700 1,920 Climbing Memphis Center
05:57PM 34.6331 -89.9028 136° Southeast 296 341 15,400 1,620 Climbing Memphis Center
05:58PM 34.5617 -89.8275 139° Southeast 330 380 17,000 1,740 Climbing Memphis Center
05:59PM 34.4925 -89.7550 139° Southeast 335 386 18,900 1,800 Climbing Memphis Center
06:00PM 34.4192 -89.6797 140° Southeast 340 391 20,700 1,560 Climbing Memphis Center
06:01PM 34.3456 -89.6050 140° Southeast 347 399 22,100 1,440 Climbing Memphis Center
06:02PM 34.2681 -89.5278 141° Southeast 352 405 23,600 1,500 Climbing Memphis Center
06:03PM 34.1964 -89.4531 139° Southeast 352 405 25,100 1,500 Climbing Memphis Center
06:04PM 34.1186 -89.3761 141° Southeast 357 411 26,600 1,320 Climbing Memphis Center
06:05PM 34.0514 -89.3067 139° Southeast 357 411 27,800 1,320 Climbing Memphis Center
06:06PM 33.9756 -89.2300 140° Southeast 357 411 29,300 1,620 Climbing Memphis Center
06:07PM 33.9019 -89.1583 141° Southeast 357 411 31,100 1,620 Climbing Memphis Center
06:08PM 33.8281 -89.0844 140° Southeast 357 411 32,600 1,440 Climbing Memphis Center
06:09PM 33.7606 -89.0178 141° Southeast 339 390 34,000 1,200 Climbing Memphis Center
06:10PM 33.6908 -88.9467 140° Southeast 334 384 35,000 480 Climbing Memphis Center
06:11PM 33.6106 -88.8681 141° Southeast 346 398 35,000  Level Memphis Center
06:12PM 33.5261 -88.7822 140° Southeast 366 421 35,000  Level Memphis Center
06:13PM 33.4394 -88.6967 141° Southeast 387 445 35,000  Level Memphis Center
06:14PM 33.3506 -88.6114 141° Southeast 403 464 35,000  Level Memphis Center
06:15PM 33.2617 -88.5236 140° Southeast 409 471 35,000  Level Memphis Center
06:17PM 33.1083 -88.3761 141° Southeast 419 482 35,000  Level Atlanta Center
06:18PM 33.0197 -88.2875 140° Southeast 419 482 35,000  Level Atlanta Center
06:19PM 32.9286 -88.2014 142° Southeast 419 482 35,000  Level Atlanta Center
06:20PM 32.8378 -88.1106 140° Southeast 419 482 35,000  Level Atlanta Center
06:21PM 32.7489 -88.0225 140° Southeast 419 482 35,000  Level Atlanta Center
06:22PM 32.6636 -87.9469 143° Southeast 412 474 35,000  Level Atlanta Center
06:23PM 32.5747 -87.8569 140° Southeast 417 480 35,000  Level Atlanta Center
06:24PM 32.4833 -87.7692 141° Southeast 424 488 35,000  Level Atlanta Center
06:25PM 32.3939 -87.6892 143° Southeast 424 488 35,000  Level Atlanta Center
06:26PM 32.3006 -87.5994 141° Southeast 429 494 35,000 -300 Level Atlanta Center
06:27PM 32.2053 -87.5047 140° Southeast 438 504 34,400 -900 Descending Atlanta Center
06:28PM 32.1075 -87.4128 141° Southeast 446 513 33,300 -1,140 Descending Atlanta Center
06:29PM 32.0119 -87.3233 142° Southeast 451 519 32,200 -1,200 Descending Atlanta Center
06:30PM 31.9181 -87.2367 142° Southeast 446 513 31,000 -1,260 Descending Atlanta Center
06:31PM 31.8244 -87.1456 140° Southeast 441 507 29,700 -1,440 Descending Atlanta Center
06:33PM 31.6131 -86.9494 142° Southeast 445 512 26,600 -1,440 Descending Jacksonville Center
06:34PM 31.5219 -86.8578 139° Southeast 451 519 25,300 -1,320 Descending Jacksonville Center
06:35PM 31.4311 -86.7636 138° Southeast 445 512 24,000 -1,440 Descending Jacksonville Center
06:36PM 31.3439 -86.6725 138° Southeast 438 504 22,500 -1,560 Descending Jacksonville Center
06:37PM 31.2589 -86.5864 139° Southeast 421 484 20,900 -1,560 Descending Jacksonville Center
06:38PM 31.1756 -86.5031 139° Southeast 411 473 19,400 -960 Descending Jacksonville Center
06:39PM 31.1203 -86.3967 121° Southeast 394 453 19,000 -600 Descending Jacksonville Center
06:40PM 31.0903 -86.2717 106° East 380 437 18,300 -900 Descending Jacksonville Center
06:41PM 31.0619 -86.1519 105° East 380 437 17,200 -1,320 Descending Jacksonville Center
06:42PM 31.0317 -86.0272 106° East 385 443 15,700 -1,680 Descending Jacksonville Center
06:43PM 30.9978 -85.9583 120° Southeast 377 434 14,600 -1,620 Descending Jacksonville Center
06:43PM 30.9733 -85.9356 141° Southeast 357 411 14,100 -1,560 Descending Jacksonville Center
06:44PM 30.8800 -85.9133 168° South 318 366 12,400 -2,040 Descending Jacksonville Center
06:45PM 30.7886 -85.8911 168° South 323 372 10,100 -2,280 Descending Jacksonville Center
06:46PM 30.7119 -85.8742 169° South 312 359 7,900 -2,400 Descending Jacksonville Center
06:47PM 30.6522 -85.8314 148° Southeast 274 315 5,400 -1,980 Descending Jacksonville Center
06:48PM 30.5919 -85.8244 174° South 238 274 4,000 -1,140 Descending Jacksonville Center
06:49PM 30.5331 -85.8397 193° South 217 250 3,200 -960 Descending Jacksonville Center
06:50PM 30.4767 -85.8453 185° South 211 243 2,100 -900 Descending Jacksonville Center
06:51PM 30.4289 -85.8292 164° South 196 226 1,400 -780 Descending Jacksonville Center
06:52PM 30.3897 -85.8111 158° South 170 196 600 -600 Descending Jacksonville Center
06:53PM 30.3461 -85.7978 165° South 155 178 200 -420 Descending Jacksonville Center
06:55PM 30.3500 -85.7833 161° South  Level FlightAware Approximate
07:02PM 30.3582 -85.7956 161° South  Level Estimated
07:03PM 30.3582 -85.7956 161° South  Level Estimated
07:04PM 30.3582 -85.7956 161° South  Level Estimated